createdAt,value
2022-08-30T00:00:36.526Z,48.20
2022-08-30T00:03:07.094Z,48.53
2022-08-30T00:05:35.119Z,48.55
2022-08-30T00:08:02.392Z,48.44
2022-08-30T00:10:29.826Z,48.34
2022-08-30T00:12:58.519Z,48.43
2022-08-30T00:15:26.602Z,48.75
2022-08-30T00:17:54.311Z,48.68
2022-08-30T00:20:25.817Z,48.78
2022-08-30T00:22:53.164Z,48.89
2022-08-30T00:25:21.024Z,49.18
2022-08-30T00:27:48.925Z,49.06
2022-08-30T00:30:17.662Z,48.79
2022-08-30T00:32:44.830Z,48.65
2022-08-30T00:35:14.978Z,48.71
2022-08-30T00:37:43.110Z,49.06
2022-08-30T00:40:12.096Z,48.87
2022-08-30T00:42:39.486Z,48.99
2022-08-30T00:45:21.067Z,49.03
2022-08-30T00:47:48.658Z,49.06
2022-08-30T00:50:19.487Z,48.62
2022-08-30T00:52:50.629Z,48.42
2022-08-30T00:55:19.528Z,48.78
2022-08-30T00:57:50.905Z,48.98
2022-08-30T01:00:18.314Z,48.80
2022-08-30T01:02:45.431Z,48.58
2022-08-30T01:05:16.252Z,48.38
2022-08-30T01:07:43.966Z,48.42
2022-08-30T01:10:13.399Z,48.48
2022-08-30T01:12:42.677Z,48.60
2022-08-30T01:15:10.900Z,48.79
2022-08-30T01:17:38.763Z,48.92
2022-08-30T01:20:15.704Z,48.78
2022-08-30T01:23:04.790Z,48.82
2022-08-30T01:25:35.192Z,48.72
2022-08-30T01:28:08.633Z,48.67
2022-08-30T01:30:39.061Z,48.75
2022-08-30T01:33:08.529Z,48.82
2022-08-30T01:35:49.380Z,48.50
2022-08-30T01:38:18.319Z,48.20
2022-08-30T01:40:45.501Z,47.95
2022-08-30T01:43:14.829Z,48.02
2022-08-30T01:45:42.587Z,48.15
2022-08-30T01:48:12.737Z,48.01
2022-08-30T01:50:41.721Z,48.39
2022-08-30T01:53:13.112Z,48.47
2022-08-30T01:55:41.513Z,48.56
2022-08-30T01:58:09.156Z,48.71
2022-08-30T02:00:36.273Z,48.74
2022-08-30T02:03:03.854Z,48.91
2022-08-30T02:05:31.639Z,48.68
2022-08-30T02:07:59.172Z,48.69
2022-08-30T02:10:26.787Z,48.67
2022-08-30T02:12:53.898Z,48.52
2022-08-30T02:15:21.129Z,48.57
2022-08-30T02:17:48.227Z,48.55
2022-08-30T02:20:15.404Z,48.66
2022-08-30T02:22:47.573Z,48.61
2022-08-30T02:25:20.689Z,49.03
2022-08-30T02:27:48.701Z,49.06
2022-08-30T02:30:15.888Z,49.00
2022-08-30T02:32:43.039Z,49.06
2022-08-30T02:35:10.145Z,48.96
2022-08-30T02:37:37.359Z,48.86
2022-08-30T02:40:07.494Z,49.07
2022-08-30T02:42:34.673Z,48.59
2022-08-30T02:45:01.941Z,48.67
2022-08-30T02:47:29.152Z,48.54
2022-08-30T02:49:56.232Z,48.73
2022-08-30T02:52:27.818Z,48.82
2022-08-30T02:54:55.303Z,48.78
2022-08-30T02:57:22.843Z,48.98
2022-08-30T02:59:50.094Z,48.66
2022-08-30T03:02:17.789Z,48.63
2022-08-30T03:04:45.038Z,48.88
2022-08-30T03:07:12.834Z,48.67
2022-08-30T03:09:40.722Z,48.73
2022-08-30T03:12:09.568Z,49.00
2022-08-30T03:14:38.069Z,48.81
2022-08-30T03:17:12.755Z,48.80
2022-08-30T03:19:43.990Z,48.62
2022-08-30T03:22:12.045Z,49.16
2022-08-30T03:24:40.176Z,48.69
2022-08-30T03:27:08.046Z,48.67
2022-08-30T03:29:35.696Z,48.76
2022-08-30T03:32:03.604Z,48.76
2022-08-30T03:34:30.768Z,48.54
2022-08-30T03:36:58.442Z,48.68
2022-08-30T03:39:25.628Z,48.59
2022-08-30T03:41:53.805Z,49.04
2022-08-30T03:44:21.488Z,49.18
2022-08-30T03:46:49.232Z,49.51
2022-08-30T03:49:16.550Z,49.11
2022-08-30T03:51:43.707Z,49.55
2022-08-30T03:54:10.944Z,49.73
2022-08-30T03:56:38.069Z,49.76
2022-08-30T03:59:05.379Z,49.98
2022-08-30T04:01:32.700Z,49.92
2022-08-30T04:03:59.941Z,49.89
2022-08-30T04:06:28.062Z,50.12
2022-08-30T04:08:55.205Z,50.05
2022-08-30T04:11:22.273Z,50.01
2022-08-30T04:13:51.745Z,49.92
2022-08-30T04:16:19.655Z,49.71
2022-08-30T04:18:47.273Z,50.22
2022-08-30T04:21:14.558Z,49.91
2022-08-30T04:23:42.432Z,49.65
2022-08-30T04:26:09.900Z,49.67
2022-08-30T04:28:37.028Z,49.94
2022-08-30T04:31:11.735Z,50.00
2022-08-30T04:33:40.382Z,50.24
2022-08-30T04:36:09.039Z,49.86
2022-08-30T04:38:37.552Z,49.92
2022-08-30T04:41:14.959Z,50.33
2022-08-30T04:43:43.510Z,49.91
2022-08-30T04:46:11.244Z,50.37
2022-08-30T04:48:38.731Z,50.03
2022-08-30T04:51:07.408Z,50.23
2022-08-30T04:53:35.141Z,50.24
2022-08-30T04:56:06.716Z,50.37
2022-08-30T04:58:33.949Z,49.92
2022-08-30T05:01:01.335Z,50.61
2022-08-30T05:03:29.617Z,50.71
2022-08-30T05:05:56.758Z,50.69
2022-08-30T05:08:24.951Z,50.75
2022-08-30T05:10:52.935Z,50.54
2022-08-30T05:13:35.249Z,50.69
2022-08-30T05:16:06.310Z,50.51
2022-08-30T05:18:33.689Z,50.96
2022-08-30T05:21:09.061Z,51.64
2022-08-30T05:23:37.946Z,51.13
2022-08-30T05:26:14.026Z,50.26
2022-08-30T05:28:41.856Z,50.45
2022-08-30T05:31:25.360Z,51.05
2022-08-30T05:33:54.116Z,50.84
2022-08-30T05:36:24.371Z,50.39
2022-08-30T05:38:51.767Z,49.97
2022-08-30T05:41:20.089Z,49.62
2022-08-30T05:43:48.481Z,50.71
2022-08-30T05:46:19.592Z,49.64
2022-08-30T05:48:47.389Z,50.14
2022-08-30T05:51:17.483Z,50.06
2022-08-30T05:53:45.911Z,50.05
2022-08-30T05:56:15.338Z,49.95
2022-08-30T05:58:43.506Z,50.52
2022-08-30T06:01:26.051Z,50.46
2022-08-30T06:03:55.583Z,49.72
2022-08-30T06:06:23.209Z,50.31
2022-08-30T06:08:50.592Z,49.46
2022-08-30T06:11:20.184Z,49.97
2022-08-30T06:13:47.691Z,50.45
2022-08-30T06:16:17.716Z,50.49
2022-08-30T06:18:45.602Z,50.77
2022-08-30T06:21:22.767Z,50.93
2022-08-30T06:23:50.939Z,51.03
2022-08-30T06:26:18.201Z,50.87
2022-08-30T06:28:45.534Z,51.13
2022-08-30T06:31:15.300Z,50.90
2022-08-30T06:33:43.019Z,51.08
2022-08-30T06:36:14.349Z,51.32
2022-08-30T06:38:41.838Z,51.46
2022-08-30T06:41:11.397Z,51.30
2022-08-30T06:43:38.616Z,51.66
2022-08-30T06:46:11.124Z,51.70
2022-08-30T06:48:38.395Z,51.60
2022-08-30T06:51:06.684Z,51.29
2022-08-30T06:53:34.584Z,51.43
2022-08-30T06:56:05.180Z,51.96
2022-08-30T06:58:33.249Z,51.89
2022-08-30T07:01:00.410Z,51.18
2022-08-30T07:03:27.590Z,50.69
2022-08-30T07:05:57.182Z,50.81
2022-08-30T07:08:25.498Z,50.80
2022-08-30T07:10:53.948Z,50.68
2022-08-30T07:13:23.895Z,50.24
2022-08-30T07:15:51.903Z,49.71
2022-08-30T07:18:37.895Z,49.86
2022-08-30T07:21:12.085Z,50.02
2022-08-30T07:23:39.865Z,49.86
2022-08-30T07:26:09.091Z,50.31
2022-08-30T07:28:40.714Z,49.98
2022-08-30T07:33:40.960Z,49.83
2022-08-30T07:36:08.835Z,49.59
2022-08-30T07:38:36.374Z,49.62
2022-08-30T07:41:04.172Z,49.21
2022-08-30T07:43:33.138Z,48.93
2022-08-30T07:46:08.173Z,48.79
2022-08-30T07:48:35.531Z,48.89
2022-08-30T07:51:05.554Z,48.80
2022-08-30T07:53:32.828Z,48.75
2022-08-30T07:56:00.691Z,48.86
2022-08-30T07:58:32.320Z,48.34
2022-08-30T08:01:00.200Z,48.09
2022-08-30T08:03:27.883Z,48.10
2022-08-30T08:05:55.552Z,48.20
2022-08-30T08:08:23.613Z,48.69
2022-08-30T08:10:50.760Z,48.21
2022-08-30T08:13:17.997Z,47.81
2022-08-30T08:15:45.486Z,47.94
2022-08-30T08:18:13.188Z,47.44
2022-08-30T08:20:40.658Z,47.37
2022-08-30T08:23:08.065Z,47.16
2022-08-30T08:25:40.566Z,47.63
2022-08-30T08:28:07.942Z,47.64
2022-08-30T08:30:37.393Z,47.78
2022-08-30T08:33:06.096Z,47.27
2022-08-30T08:35:33.361Z,47.49
2022-08-30T08:38:00.883Z,47.00
2022-08-30T08:40:31.193Z,46.51
2022-08-30T08:43:11.621Z,46.70
2022-08-30T08:46:00.166Z,46.09
2022-08-30T08:48:59.535Z,46.24
2022-08-30T08:51:51.374Z,46.37
2022-08-30T08:54:44.429Z,46.22
2022-08-30T08:57:15.303Z,46.52
2022-08-30T08:59:44.933Z,46.76
2022-08-30T09:02:25.042Z,45.78
2022-08-30T09:04:58.187Z,46.23
2022-08-30T09:07:29.782Z,46.09
2022-08-30T09:10:00.633Z,45.97
2022-08-30T09:12:28.348Z,45.49
2022-08-30T09:15:12.250Z,45.97
2022-08-30T09:18:18.911Z,45.80
2022-08-30T09:20:49.695Z,45.91
2022-08-30T09:23:17.482Z,46.02
2022-08-30T09:25:53.328Z,45.78
2022-08-30T09:28:43.389Z,46.06
2022-08-30T09:31:30.432Z,45.89
2022-08-30T09:34:03.635Z,45.99
2022-08-30T09:36:51.989Z,45.62
2022-08-30T09:39:31.340Z,45.19
2022-08-30T09:42:18.969Z,45.69
2022-08-30T09:44:46.332Z,45.39
2022-08-30T09:47:28.925Z,44.97
2022-08-30T09:50:10.029Z,45.33
2022-08-30T09:52:58.895Z,45.08
2022-08-30T09:55:31.998Z,45.51
2022-08-30T10:15:21.641Z,46.35
2022-08-30T10:18:04.717Z,43.89
2022-08-30T10:20:42.827Z,43.77
2022-08-30T10:23:16.901Z,42.68
2022-08-30T10:25:53.585Z,43.84
2022-08-30T10:28:34.923Z,42.50
2022-08-30T10:31:07.699Z,42.33
2022-08-30T10:33:44.633Z,41.75
2022-08-30T10:36:14.317Z,41.04
2022-08-30T10:38:48.381Z,40.83
2022-08-30T10:41:41.002Z,39.32
2022-08-30T10:44:26.719Z,40.94
2022-08-30T10:47:23.134Z,40.68
2022-08-30T10:50:15.583Z,40.42
2022-08-30T10:52:58.084Z,39.15
2022-08-30T10:55:37.485Z,39.63
2022-08-30T10:58:06.260Z,39.27
2022-08-30T11:00:45.734Z,40.27
2022-08-30T11:03:44.982Z,39.89
2022-08-30T11:06:25.026Z,39.89
2022-08-30T11:09:01.281Z,39.00
2022-08-30T11:11:40.988Z,37.44
2022-08-30T11:14:11.083Z,35.93
2022-08-30T11:16:45.865Z,37.01
2022-08-30T11:19:24.173Z,37.52
2022-08-30T11:22:08.247Z,37.46
2022-08-30T11:25:02.094Z,36.83
2022-08-30T11:27:51.355Z,37.32
2022-08-30T11:30:24.472Z,36.01
2022-08-30T11:33:03.129Z,36.53
2022-08-30T11:35:55.374Z,34.99
2022-08-30T11:38:25.488Z,33.49
2022-08-30T11:41:09.496Z,34.52
2022-08-30T11:43:39.806Z,35.57
2022-08-30T11:46:27.145Z,35.86
2022-08-30T11:49:23.452Z,35.58
2022-08-30T11:52:27.146Z,33.92
2022-08-30T11:55:26.805Z,33.78
2022-08-30T11:58:19.231Z,34.05
2022-08-30T12:00:51.416Z,34.92
2022-08-30T12:03:20.899Z,33.68
2022-08-30T12:06:04.507Z,33.22
2022-08-30T12:08:34.062Z,33.78
2022-08-30T12:11:01.499Z,33.82
2022-08-30T12:13:34.646Z,33.69
2022-08-30T12:16:13.802Z,33.64
2022-08-30T12:18:47.448Z,34.17
2022-08-30T12:21:21.384Z,33.95
2022-08-30T12:24:03.679Z,34.37
2022-08-30T12:26:41.249Z,33.36
2022-08-30T12:29:18.867Z,32.91
2022-08-30T12:31:52.557Z,33.69
2022-08-30T12:34:41.566Z,33.87
2022-08-30T12:37:28.289Z,33.18
2022-08-30T12:40:07.830Z,33.25
2022-08-30T12:42:41.153Z,32.78
2022-08-30T12:45:15.205Z,32.16
2022-08-30T12:47:51.140Z,32.73
2022-08-30T12:50:23.685Z,32.69
2022-08-30T12:53:21.789Z,32.69
2022-08-30T12:55:55.194Z,32.61
2022-08-30T12:58:46.658Z,32.52
2022-08-30T13:01:19.370Z,32.68
2022-08-30T13:04:03.365Z,33.50
2022-08-30T13:06:43.749Z,33.69
2022-08-30T13:09:23.781Z,32.99
2022-08-30T13:11:51.433Z,33.60
2022-08-30T13:14:24.393Z,33.59
2022-08-30T13:17:07.485Z,34.70
2022-08-30T13:19:41.172Z,35.18
2022-08-30T13:22:39.633Z,34.75
2022-08-30T13:25:09.576Z,34.71
2022-08-30T13:27:38.275Z,34.18
2022-08-30T13:30:13.333Z,34.15
2022-08-30T13:32:42.724Z,34.09
2022-08-30T13:35:11.324Z,34.61
2022-08-30T13:37:49.895Z,34.41
2022-08-30T13:40:21.015Z,34.11
2022-08-30T13:42:49.080Z,34.06
2022-08-30T13:48:06.501Z,34.21
2022-08-30T13:50:33.777Z,34.25
2022-08-30T13:53:00.939Z,34.40
2022-08-30T13:55:28.806Z,34.44
2022-08-30T13:57:57.445Z,34.43
2022-08-30T14:00:26.123Z,34.08
2022-08-30T14:02:57.357Z,34.10
2022-08-30T14:05:49.837Z,34.47
2022-08-30T14:11:19.153Z,34.51
2022-08-30T14:16:37.359Z,34.15
2022-08-30T14:19:05.731Z,34.72
2022-08-30T14:21:33.248Z,34.75
2022-08-30T14:24:00.535Z,35.50
2022-08-30T14:26:32.234Z,35.14
2022-08-30T14:28:59.559Z,35.50
2022-08-30T14:31:26.759Z,34.96
2022-08-30T14:33:53.966Z,35.17
2022-08-30T14:36:21.104Z,35.63
2022-08-30T14:38:49.534Z,35.22
2022-08-30T14:41:17.067Z,35.29
2022-08-30T14:43:44.335Z,35.46
2022-08-30T14:46:12.346Z,35.10
2022-08-30T14:48:39.579Z,35.39
2022-08-30T14:51:14.007Z,35.77
2022-08-30T14:53:41.316Z,35.69
2022-08-30T14:56:19.698Z,35.20
2022-08-30T14:58:51.692Z,35.52
2022-08-30T15:01:19.909Z,35.62
2022-08-30T15:03:47.170Z,36.01
2022-08-30T15:06:14.681Z,35.50
2022-08-30T15:08:43.469Z,35.78
2022-08-30T15:11:18.001Z,35.95
2022-08-30T15:13:45.968Z,35.34
2022-08-30T15:16:24.193Z,35.16
2022-08-30T15:18:51.789Z,35.53
2022-08-30T15:21:28.278Z,35.74
2022-08-30T15:23:55.574Z,35.24
2022-08-30T15:26:24.013Z,35.40
2022-08-30T15:28:51.639Z,35.72
2022-08-30T15:31:21.006Z,35.61
2022-08-30T15:33:50.452Z,35.87
2022-08-30T15:36:17.742Z,35.56
2022-08-30T15:38:45.879Z,35.55
2022-08-30T15:41:13.679Z,35.26
2022-08-30T15:43:41.438Z,34.94
2022-08-30T15:46:31.788Z,34.70
2022-08-30T15:49:02.330Z,34.72
2022-08-30T15:51:30.876Z,34.17
2022-08-30T15:54:11.595Z,34.19
2022-08-30T15:56:39.931Z,33.47
2022-08-30T15:59:10.087Z,33.15
2022-08-30T16:01:37.950Z,32.54
2022-08-30T16:04:05.155Z,25.47
2022-08-30T16:06:37.197Z,20.84
2022-08-30T16:09:06.530Z,23.60
2022-08-30T16:11:34.226Z,20.36
2022-08-30T16:14:02.188Z,24.94
2022-08-30T16:16:31.095Z,26.52
2022-08-30T16:18:58.374Z,28.05
2022-08-30T16:21:28.803Z,28.51
2022-08-30T16:23:58.858Z,29.45
2022-08-30T16:26:27.287Z,26.25
2022-08-30T16:28:55.556Z,22.18
2022-08-30T16:31:23.759Z,21.19
2022-08-30T16:33:52.646Z,20.06
2022-08-30T16:36:22.055Z,22.85
2022-08-30T16:38:52.626Z,24.03
2022-08-30T16:41:23.533Z,26.42
2022-08-30T16:43:53.346Z,27.75
2022-08-30T16:46:27.849Z,28.42
2022-08-30T16:48:57.952Z,28.83
2022-08-30T16:51:27.282Z,28.81
2022-08-30T16:53:56.214Z,28.21
2022-08-30T16:56:25.061Z,28.24
2022-08-30T16:58:57.771Z,28.07
2022-08-30T17:01:29.993Z,28.18
2022-08-30T17:03:57.127Z,28.38
2022-08-30T17:06:24.261Z,29.43
2022-08-30T17:08:56.016Z,28.84
2022-08-30T17:11:24.398Z,27.55
2022-08-30T17:13:52.138Z,27.63
2022-08-30T17:16:22.657Z,28.79
2022-08-30T17:18:59.628Z,29.18
2022-08-30T17:21:31.227Z,30.21
2022-08-30T17:24:02.099Z,30.71
2022-08-30T17:26:35.211Z,31.01
2022-08-30T17:29:03.871Z,31.60
2022-08-30T17:31:31.475Z,31.74
2022-08-30T17:34:02.939Z,32.17
2022-08-30T17:36:36.488Z,32.40
2022-08-30T17:39:11.395Z,32.96
2022-08-30T17:41:48.224Z,33.20
2022-08-30T17:44:20.394Z,33.04
2022-08-30T17:46:47.631Z,33.53
2022-08-30T17:49:15.188Z,33.62
2022-08-30T17:51:44.280Z,34.13
2022-08-30T17:54:12.914Z,35.19
2022-08-30T17:56:41.385Z,34.42
2022-08-30T17:59:15.996Z,35.19
2022-08-30T18:01:44.876Z,35.41
2022-08-30T18:04:14.892Z,35.54
2022-08-30T18:06:47.892Z,35.75
2022-08-30T18:09:15.054Z,36.37
2022-08-30T18:11:42.316Z,36.06
2022-08-30T18:14:11.389Z,37.31
2022-08-30T18:16:49.851Z,37.03
2022-08-30T18:19:23.885Z,37.62
2022-08-30T18:21:51.479Z,37.80
2022-08-30T18:24:18.906Z,38.36
2022-08-30T18:26:46.535Z,37.72
2022-08-30T18:29:13.902Z,38.28
2022-08-30T18:31:41.421Z,38.29
2022-08-30T18:34:12.253Z,38.26
2022-08-30T18:36:40.629Z,37.91
2022-08-30T18:39:08.864Z,38.46
2022-08-30T18:41:42.201Z,38.60
2022-08-30T18:44:26.834Z,38.60
2022-08-30T18:46:56.824Z,38.05
2022-08-30T18:49:28.664Z,38.23
2022-08-30T18:51:55.878Z,38.48
2022-08-30T18:54:23.873Z,38.47
2022-08-30T18:56:51.732Z,39.11
2022-08-30T18:59:19.097Z,39.24
2022-08-30T19:01:47.141Z,39.67
2022-08-30T19:04:29.520Z,39.03
2022-08-30T19:07:02.475Z,38.79
2022-08-30T19:09:30.348Z,38.59
2022-08-30T19:11:57.521Z,38.68
2022-08-30T19:14:24.612Z,39.11
2022-08-30T19:16:56.262Z,39.67
2022-08-30T19:19:23.806Z,39.53
2022-08-30T19:21:51.818Z,39.34
2022-08-30T19:24:20.213Z,40.10
2022-08-30T19:26:48.730Z,39.98
2022-08-30T19:29:15.935Z,39.65
2022-08-30T19:31:43.765Z,39.90
2022-08-30T19:34:11.994Z,40.17
2022-08-30T19:36:39.417Z,39.13
2022-08-30T19:39:07.398Z,39.46
2022-08-30T19:41:34.663Z,40.04
2022-08-30T19:44:03.257Z,39.59
2022-08-30T19:46:32.445Z,40.38
2022-08-30T19:49:01.086Z,39.60
2022-08-30T19:51:28.288Z,39.83
2022-08-30T19:53:58.761Z,39.96
2022-08-30T19:56:26.545Z,39.91
2022-08-30T19:58:54.155Z,40.17
2022-08-30T20:01:32.413Z,40.56
2022-08-30T20:04:02.019Z,40.00
2022-08-30T20:06:30.670Z,40.26
2022-08-30T20:08:58.353Z,39.77
2022-08-30T20:11:28.697Z,39.64
2022-08-30T20:13:56.140Z,39.34
2022-08-30T20:16:28.378Z,39.19
2022-08-30T20:19:06.516Z,39.24
2022-08-30T20:21:34.040Z,39.15
2022-08-30T20:24:03.324Z,39.22
2022-08-30T20:26:34.149Z,39.29
2022-08-30T20:29:03.079Z,39.53
2022-08-30T20:31:30.544Z,39.49
2022-08-30T20:33:58.041Z,39.65
2022-08-30T20:36:25.191Z,39.71
2022-08-30T20:38:52.785Z,40.22
2022-08-30T20:41:20.176Z,40.34
2022-08-30T20:43:48.808Z,41.25
2022-08-30T20:46:19.955Z,40.92
2022-08-30T20:48:47.801Z,40.98
2022-08-30T20:51:18.822Z,41.13
2022-08-30T20:53:46.121Z,40.78
2022-08-30T20:56:16.504Z,41.71
2022-08-30T20:58:44.810Z,41.78
2022-08-30T21:01:13.338Z,41.50
2022-08-30T21:03:40.969Z,41.61
2022-08-30T21:06:08.403Z,42.16
2022-08-30T21:08:35.515Z,42.43
2022-08-30T21:11:02.624Z,42.11
2022-08-30T21:13:30.716Z,42.21
2022-08-30T21:16:03.842Z,43.00
2022-08-30T21:18:33.896Z,43.22
2022-08-30T21:21:12.137Z,42.84
2022-08-30T21:23:39.925Z,44.35
2022-08-30T21:26:08.204Z,43.68
2022-08-30T21:28:36.235Z,43.15
2022-08-30T21:31:12.710Z,43.26
2022-08-30T21:33:42.719Z,43.27
2022-08-30T21:36:29.493Z,43.34
2022-08-30T21:39:00.702Z,43.02
2022-08-30T21:41:30.309Z,43.74
2022-08-30T21:43:58.145Z,44.33
2022-08-30T21:46:27.148Z,45.33
2022-08-30T21:48:54.591Z,45.37
2022-08-30T21:51:21.666Z,44.88
2022-08-30T21:53:48.797Z,44.77
2022-08-30T21:56:21.639Z,45.12
2022-08-30T21:58:50.329Z,44.79
2022-08-30T22:01:18.767Z,44.99
2022-08-30T22:03:46.603Z,44.68
2022-08-30T22:06:14.426Z,44.80
2022-08-30T22:08:44.909Z,45.49
2022-08-30T22:11:19.584Z,45.23
2022-08-30T22:13:48.624Z,44.99
2022-08-30T22:16:16.492Z,45.10
2022-08-30T22:18:44.508Z,45.65
2022-08-30T22:21:15.193Z,46.05
2022-08-30T22:23:42.721Z,46.00
2022-08-30T22:26:10.846Z,45.73
2022-08-30T22:28:38.265Z,45.58
2022-08-30T22:31:08.350Z,45.85
2022-08-30T22:33:36.090Z,45.96
2022-08-30T22:36:08.749Z,45.84
2022-08-30T22:38:36.457Z,45.90
2022-08-30T22:41:03.624Z,45.86
2022-08-30T22:43:30.896Z,46.41
2022-08-30T22:45:58.353Z,46.42
2022-08-30T22:48:25.571Z,46.02
2022-08-30T22:50:52.750Z,46.41
2022-08-30T22:53:20.092Z,46.72
2022-08-30T22:55:47.204Z,47.22
2022-08-30T22:58:14.343Z,46.98
2022-08-30T23:00:46.395Z,47.76
2022-08-30T23:03:22.166Z,47.62
2022-08-30T23:05:49.286Z,47.64
2022-08-30T23:08:16.437Z,47.77
2022-08-30T23:10:44.313Z,48.61
2022-08-30T23:13:11.498Z,48.99
2022-08-30T23:15:38.673Z,49.31
2022-08-30T23:18:05.824Z,49.36
2022-08-30T23:20:33.351Z,50.22
2022-08-30T23:23:00.505Z,50.02
2022-08-30T23:25:52.276Z,50.98
2022-08-30T23:28:39.217Z,50.68
2022-08-30T23:31:31.152Z,51.54
2022-08-30T23:34:17.336Z,52.41
2022-08-30T23:37:02.981Z,52.82
2022-08-30T23:39:48.843Z,52.96
2022-08-30T23:42:34.710Z,52.72
2022-08-30T23:45:20.000Z,53.34
2022-08-30T23:48:05.700Z,53.79
2022-08-30T23:50:51.490Z,52.81
2022-08-30T23:53:36.902Z,53.64
2022-08-30T23:56:22.562Z,53.34
2022-08-30T23:59:07.908Z,53.38
